Time;durP1;ratioP1;P1;durP2;ratioP2;P2;SDS_P1;SDS_P2;PMS_P1;PMS_P2;Temp;Humidity;BMP_temperature;BMP_pressure;BME280_temperature;BME280_humidity;BME280_pressure;Samples;Min_cycle;Max_cycle;Signal;HPM_P1;HPM_P2
2023/01/05 00:01:20;;;;;;;3.15;1.60;;;;;;;8.82;100.00;98880.69;5052843;28;20082;-76
2023/01/05 00:03:46;;;;;;;1.60;1.50;;;;;;;8.78;100.00;98868.78;5053135;28;20024;-76
2023/01/05 00:06:13;;;;;;;1.60;1.50;;;;;;;8.80;100.00;98885.13;5052803;28;20025;-77
2023/01/05 00:08:39;;;;;;;1.50;1.40;;;;;;;8.80;100.00;98878.16;5052900;28;20032;-76
2023/01/05 00:22:32;;;;;;;2.03;1.85;;;;;;;8.81;100.00;98846.13;5052680;28;20051;-76
2023/01/05 00:25:00;;;;;;;2.45;1.30;;;;;;;8.89;100.00;98862.13;5052755;28;20033;-77
2023/01/05 00:27:26;;;;;;;1.60;1.50;;;;;;;8.93;100.00;98850.66;5052400;28;20013;-76
2023/01/05 00:29:52;;;;;;;1.65;1.40;;;;;;;8.96;100.00;98854.84;5052588;28;20083;-76
2023/01/05 00:32:18;;;;;;;3.08;1.40;;;;;;;8.98;100.00;98855.63;5052721;28;20027;-77
2023/01/05 00:34:43;;;;;;;1.20;1.20;;;;;;;8.98;100.00;98832.25;5052485;28;20632;-77
2023/01/05 00:37:08;;;;;;;3.20;1.40;;;;;;;9.03;100.00;98830.22;5052157;28;20021;-77
2023/01/05 00:39:34;;;;;;;1.48;1.15;;;;;;;8.98;100.00;98833.06;5052573;28;20075;-77
2023/01/05 00:41:59;;;;;;;1.38;1.27;;;;;;;9.08;100.00;98841.22;5052884;28;20510;-77
2023/01/05 00:44:24;;;;;;;1.63;1.52;;;;;;;9.07;100.00;98836.94;5052006;28;20379;-77
2023/01/05 00:46:50;;;;;;;1.45;1.35;;;;;;;9.08;100.00;98841.22;5051132;28;20025;-77
2023/01/05 00:49:15;;;;;;;2.70;1.20;;;;;;;9.12;100.00;98832.34;5052014;28;20025;-77
2023/01/05 00:51:41;;;;;;;2.67;1.73;;;;;;;9.07;100.00;98800.56;5052166;28;20021;-77
2023/01/05 00:54:06;;;;;;;1.30;1.10;;;;;;;9.14;100.00;98816.66;5051808;28;20061;-77
2023/01/05 00:56:32;;;;;;;2.75;1.33;;;;;;;9.17;100.00;98822.53;5052394;28;20025;-77
2023/01/05 00:58:57;;;;;;;2.63;1.55;;;;;;;9.23;100.00;98818.78;5051979;28;20059;-77
2023/01/05 01:01:22;;;;;;;2.72;1.63;;;;;;;9.27;100.00;98822.03;5052008;28;20017;-77
2023/01/05 01:03:48;;;;;;;4.82;1.50;;;;;;;9.33;100.00;98830.34;5052153;28;20028;-76
2023/01/05 01:06:14;;;;;;;2.60;1.48;;;;;;;9.37;100.00;98818.00;5051681;28;20033;-77
2023/01/05 01:08:39;;;;;;;3.38;1.63;;;;;;;9.27;100.00;98812.50;5051893;28;20372;-77
2023/01/05 01:11:07;;;;;;;4.65;1.73;;;;;;;9.35;100.00;98812.03;5051924;28;20020;-77
2023/01/05 01:13:32;;;;;;;4.00;1.65;;;;;;;9.36;100.00;98821.53;5051770;28;20531;-77
2023/01/05 01:16:05;;;;;;;2.17;1.50;;;;;;;9.37;100.00;98815.41;5051958;28;20147;-77
2023/01/05 01:18:30;;;;;;;3.10;1.70;;;;;;;9.38;100.00;98817.91;5051664;28;20053;-76
2023/01/05 01:20:55;;;;;;;2.13;1.38;;;;;;;9.41;100.00;98822.97;5051764;28;20522;-76
2023/01/05 01:23:20;;;;;;;2.92;1.58;;;;;;;9.42;100.00;98822.03;5051264;28;20021;-76
2023/01/05 01:25:46;;;;;;;4.10;1.70;;;;;;;9.42;100.00;98824.63;5052004;28;20021;-76
2023/01/05 01:28:11;;;;;;;5.18;1.63;;;;;;;9.30;100.00;98796.72;5051661;28;20051;-76
2023/01/05 01:30:38;;;;;;;5.22;1.83;;;;;;;9.31;100.00;98807.94;5051883;28;20028;-77
2023/01/05 01:33:03;;;;;;;4.05;1.77;;;;;;;9.23;100.00;98808.38;5051838;28;20017;-76
2023/01/05 01:35:28;;;;;;;5.43;1.80;;;;;;;9.20;100.00;98824.13;5051247;28;20035;-76
2023/01/05 01:37:54;;;;;;;3.63;1.75;;;;;;;9.06;100.00;98801.50;5051842;28;20029;-76
2023/01/05 01:40:20;;;;;;;2.45;1.63;;;;;;;9.01;100.00;98803.47;5051328;28;20041;-77
2023/01/05 01:42:45;;;;;;;3.28;1.60;;;;;;;9.03;100.00;98812.03;5051657;28;20024;-76
2023/01/05 01:45:20;;;;;;;4.30;1.70;;;;;;;9.06;100.00;98811.03;5051688;28;20082;-76
2023/01/05 01:47:56;;;;;;;3.72;1.85;;;;;;;9.06;100.00;98798.03;5051715;28;20067;-76
2023/01/05 01:50:40;;;;;;;2.28;1.58;;;;;;;9.08;100.00;98809.19;5051349;28;20028;-76
2023/01/05 01:53:30;;;;;;;3.28;1.73;;;;;;;9.14;100.00;98816.66;5051594;28;20194;-77
2023/01/05 01:55:59;;;;;;;3.45;1.60;;;;;;;9.08;100.00;98809.19;5051666;28;20051;-77
2023/01/05 01:58:27;;;;;;;5.03;1.92;;;;;;;9.07;100.00;98808.38;5051216;28;20071;-76
2023/01/05 02:00:53;;;;;;;3.55;1.90;;;;;;;9.06;100.00;98814.50;5051465;28;20033;-76
2023/01/05 02:03:18;;;;;;;8.32;2.45;;;;;;;9.13;100.00;98814.97;5051429;28;20021;-77
2023/01/05 02:05:43;;;;;;;4.93;2.20;;;;;;;9.15;100.00;98816.59;5051375;28;20495;-76
2023/01/05 02:08:12;;;;;;;3.47;1.70;;;;;;;9.14;100.00;98798.47;5051508;28;20024;-77
2023/01/05 02:11:05;;;;;;;4.35;1.95;;;;;;;9.22;100.00;98812.72;5051414;28;20025;-77
2023/01/05 02:13:52;;;;;;;5.03;2.30;;;;;;;9.23;100.00;98805.78;5051040;28;20033;-77
2023/01/05 02:16:51;;;;;;;4.03;1.90;;;;;;;9.20;100.00;98801.59;5050922;28;20075;-76
2023/01/05 02:19:40;;;;;;;3.53;1.90;;;;;;;9.22;100.00;98802.31;5051093;28;20036;-76
2023/01/05 02:22:17;;;;;;;5.63;2.28;;;;;;;9.21;100.00;98795.47;5051206;28;20017;-77
2023/01/05 02:25:07;;;;;;;6.00;2.25;;;;;;;9.23;100.00;98798.00;5051356;28;20029;-77
2023/01/05 02:27:38;;;;;;;3.53;1.98;;;;;;;9.22;100.00;98784.13;5050908;28;20457;-77
2023/01/05 02:30:49;;;;;;;5.82;2.00;;;;;;;9.15;100.00;98777.63;5051237;28;20021;-77
2023/01/05 02:33:56;;;;;;;5.05;1.75;;;;;;;9.21;100.00;98787.66;5051176;28;20040;-76
2023/01/05 02:36:33;;;;;;;4.65;1.98;;;;;;;9.15;100.00;98767.22;5031399;28;20450;-77
2023/01/05 02:39:15;;;;;;;4.85;1.85;;;;;;;9.15;100.00;98771.59;5032124;28;20029;-77
2023/01/05 02:41:53;;;;;;;8.05;2.20;;;;;;;9.14;100.00;98783.75;5032200;28;20045;-77
2023/01/05 02:44:19;;;;;;;5.53;1.92;;;;;;;9.08;100.00;98773.66;5032124;28;20372;-77
2023/01/05 02:46:46;;;;;;;5.40;2.47;;;;;;;9.06;100.00;98795.44;5032254;28;20045;-77
2023/01/05 02:49:15;;;;;;;2.65;1.70;;;;;;;9.05;100.00;98810.19;5032109;28;20457;-77
2023/01/05 02:51:48;;;;;;;10.40;2.03;;;;;;;9.00;100.00;98827.78;5032057;28;20036;-77
2023/01/05 02:54:37;;;;;;;5.97;2.58;;;;;;;8.94;100.00;98849.75;5031810;28;20041;-76
2023/01/05 02:57:15;;;;;;;5.30;2.03;;;;;;;8.89;100.00;98840.50;5031975;28;20068;-76
2023/01/05 02:59:47;;;;;;;6.70;2.33;;;;;;;8.86;100.00;98838.09;5031746;28;20388;-76
2023/01/05 03:02:18;;;;;;;6.28;2.75;;;;;;;8.78;100.00;98829.84;5031877;28;20525;-76
2023/01/05 03:04:50;;;;;;;5.63;2.40;;;;;;;8.67;100.00;98828.63;5031911;28;20029;-76
2023/01/05 03:07:22;;;;;;;12.43;2.80;;;;;;;8.78;100.00;98840.25;5031463;28;20025;-77
2023/01/05 03:09:48;;;;;;;7.15;2.53;;;;;;;8.73;100.00;98845.66;5031641;28;20061;-76
2023/01/05 03:15:37;;;;;;;11.82;3.15;;;;;;;8.68;100.00;98843.31;5053916;28;20094;-76
2023/01/05 03:18:06;;;;;;;8.68;3.05;;;;;;;8.59;100.00;98829.94;5031415;28;20026;-77
2023/01/05 03:20:33;;;;;;;10.27;3.03;;;;;;;8.61;100.00;98838.50;5031204;28;20037;-76
2023/01/05 03:37:15;;;;;;;8.25;2.33;;;;;;;8.34;100.00;98840.72;5031521;28;20048;-76
2023/01/05 03:39:44;;;;;;;7.30;2.45;;;;;;;8.21;100.00;98820.56;5030876;28;20056;-76
2023/01/05 03:42:11;;;;;;;7.18;2.22;;;;;;;8.23;100.00;98830.88;5031089;28;20033;-76
2023/01/05 03:44:38;;;;;;;4.88;2.60;;;;;;;8.13;100.00;98799.38;5030777;28;20072;-76
2023/01/05 03:47:04;;;;;;;6.60;2.38;;;;;;;8.22;100.00;98821.44;5029900;28;20022;-76
2023/01/05 03:49:30;;;;;;;6.72;2.42;;;;;;;8.15;100.00;98830.44;5030525;28;20030;-76
2023/01/05 03:51:55;;;;;;;5.90;2.25;;;;;;;8.15;100.00;98822.66;5030840;28;20465;-76
2023/01/05 03:54:20;;;;;;;5.70;1.83;;;;;;;8.12;100.00;98817.59;5022913;28;20083;-76
2023/01/05 03:56:46;;;;;;;3.78;1.95;;;;;;;8.03;100.00;98821.50;5053577;28;20479;-76
2023/01/05 03:59:11;;;;;;;8.48;2.40;;;;;;;8.05;100.00;98842.16;5053014;28;20458;-76
2023/01/05 04:01:36;;;;;;;2.75;1.75;;;;;;;7.96;100.00;98833.06;5052827;28;20028;-76
2023/01/05 04:04:02;;;;;;;2.75;1.67;;;;;;;7.95;100.00;98839.19;5053237;28;20107;-76
2023/01/05 04:06:27;;;;;;;5.32;2.22;;;;;;;7.89;100.00;98822.19;5052527;28;20029;-76
2023/01/05 04:08:52;;;;;;;5.22;1.88;;;;;;;7.94;100.00;98837.50;5053159;28;20017;-76
2023/01/05 04:11:20;;;;;;;3.83;1.70;;;;;;;7.93;100.00;98841.03;5052655;28;20021;-76
2023/01/05 04:13:46;;;;;;;3.85;1.50;;;;;;;7.87;100.00;98829.19;5052777;28;20062;-76
2023/01/05 04:16:12;;;;;;;2.85;1.60;;;;;;;7.92;100.00;98839.31;5052668;28;20029;-76
2023/01/05 04:18:37;;;;;;;3.78;1.48;;;;;;;7.86;100.00;98827.50;5052469;28;20025;-76
2023/01/05 04:21:04;;;;;;;2.10;1.30;;;;;;;7.85;100.00;98812.03;5052564;28;20083;-76
2023/01/05 04:23:30;;;;;;;1.58;1.45;;;;;;;7.84;100.00;98813.78;5052599;28;20100;-76
2023/01/05 04:25:55;;;;;;;1.92;1.35;;;;;;;7.88;100.00;98824.81;5052690;28;20092;-76
2023/01/05 04:28:21;;;;;;;1.42;1.33;;;;;;;7.88;100.00;98824.81;5052273;28;20041;-76
2023/01/05 04:30:51;;;;;;;2.40;1.60;;;;;;;7.90;100.00;98823.84;5052548;28;20052;-76
2023/01/05 04:33:17;;;;;;;3.63;1.40;;;;;;;7.92;100.00;98827.22;5052673;28;20138;-76
2023/01/05 04:35:42;;;;;;;3.00;1.70;;;;;;;7.91;100.00;98822.94;5051994;28;20452;-76
2023/01/05 04:38:07;;;;;;;4.00;2.05;;;;;;;7.96;100.00;98817.50;5052477;28;20027;-76
2023/01/05 04:40:33;;;;;;;4.30;1.88;;;;;;;7.84;100.00;98797.41;5052266;28;20119;-76
2023/01/05 04:42:58;;;;;;;2.88;1.70;;;;;;;7.88;100.00;98810.13;5052345;28;20063;-76
2023/01/05 04:45:23;;;;;;;5.15;2.05;;;;;;;7.96;100.00;98825.28;5052059;28;20349;-76
2023/01/05 04:47:50;;;;;;;3.85;2.25;;;;;;;7.87;100.00;98807.59;5052256;28;20020;-76
2023/01/05 04:50:16;;;;;;;3.97;2.00;;;;;;;7.96;100.00;98839.13;5051968;28;20396;-76
2023/01/05 04:52:41;;;;;;;4.15;2.28;;;;;;;7.92;100.00;98826.34;5052321;28;20052;-76
2023/01/05 04:55:07;;;;;;;5.82;2.08;;;;;;;7.95;100.00;98827.06;5052149;28;20364;-76
2023/01/05 04:57:32;;;;;;;4.82;2.38;;;;;;;7.99;100.00;98832.94;5051443;28;20025;-76
2023/01/05 04:59:57;;;;;;;8.98;2.47;;;;;;;7.98;100.00;98820.88;5051796;28;20025;-76
2023/01/05 05:02:23;;;;;;;4.90;2.60;;;;;;;7.96;100.00;98817.50;5051650;28;20512;-76
2023/01/05 05:04:48;;;;;;;9.55;3.17;;;;;;;7.99;100.00;98828.56;5051803;28;20033;-76
2023/01/05 05:07:13;;;;;;;6.97;2.75;;;;;;;7.96;100.00;98818.38;5052046;28;20016;-76
2023/01/05 05:09:39;;;;;;;3.97;2.22;;;;;;;7.98;100.00;98815.69;5051775;28;20033;-76
2023/01/05 05:12:04;;;;;;;5.22;2.58;;;;;;;7.97;100.00;98814.88;5051794;28;20021;-76
2023/01/05 05:14:29;;;;;;;4.15;2.30;;;;;;;8.03;100.00;98826.69;5051448;28;20025;-76
2023/01/05 05:16:55;;;;;;;5.88;2.25;;;;;;;7.96;100.00;98820.97;5051716;28;20062;-76
2023/01/05 05:19:20;;;;;;;5.72;2.50;;;;;;;8.00;100.00;98826.81;5051625;28;20040;-76
2023/01/05 05:21:45;;;;;;;4.90;2.33;;;;;;;8.01;100.00;98823.34;5051774;28;20025;-76
2023/01/05 05:24:11;;;;;;;3.15;2.10;;;;;;;7.95;100.00;98832.22;5051952;28;20025;-76
2023/01/05 05:26:36;;;;;;;5.63;2.45;;;;;;;7.97;100.00;98838.19;5051611;28;20028;-76
2023/01/05 05:29:01;;;;;;;6.88;2.30;;;;;;;7.94;100.00;98830.56;5051623;28;20039;-76
2023/01/05 05:31:27;;;;;;;3.78;1.98;;;;;;;7.97;100.00;98833.00;5051269;28;20016;-76
2023/01/05 05:33:52;;;;;;;5.90;2.30;;;;;;;7.99;100.00;98838.94;5051981;28;20104;-76
2023/01/05 05:36:17;;;;;;;6.75;2.50;;;;;;;7.98;100.00;98831.25;5051459;28;20361;-76
2023/01/05 05:38:43;;;;;;;4.55;2.30;;;;;;;7.92;100.00;98831.53;5050188;28;20063;-76
2023/01/05 05:41:09;;;;;;;7.57;2.42;;;;;;;7.94;100.00;98835.75;5051526;28;20444;-76
2023/01/05 05:43:34;;;;;;;6.40;1.90;;;;;;;7.90;100.00;98834.22;5051653;28;20108;-76
2023/01/05 05:46:00;;;;;;;5.78;2.28;;;;;;;7.95;100.00;98841.78;5051670;28;20514;-76
2023/01/05 05:48:25;;;;;;;4.78;1.98;;;;;;;7.96;100.00;98853.81;5051143;28;20028;-76
2023/01/05 05:50:50;;;;;;;3.75;1.95;;;;;;;7.92;100.00;98854.88;5051287;28;20108;-76
2023/01/05 05:53:16;;;;;;;8.15;2.47;;;;;;;7.95;100.00;98849.56;5051585;28;20032;-76
2023/01/05 05:55:41;;;;;;;6.28;2.67;;;;;;;7.99;100.00;98856.25;5051211;28;20052;-76
2023/01/05 05:58:07;;;;;;;5.70;2.53;;;;;;;7.98;100.00;98852.84;5051402;28;20579;-76
2023/01/05 06:00:33;;;;;;;3.90;2.10;;;;;;;7.96;100.00;98852.09;5051106;28;20060;-76
2023/01/05 06:02:58;;;;;;;7.78;2.33;;;;;;;7.99;100.00;98856.25;5051243;28;20071;-76
2023/01/05 06:05:23;;;;;;;8.60;2.72;;;;;;;7.98;100.00;98855.44;5051476;28;20037;-76
2023/01/05 06:07:48;;;;;;;6.38;2.15;;;;;;;7.99;100.00;98851.91;5051112;28;20021;-76
2023/01/05 06:10:14;;;;;;;6.13;2.45;;;;;;;7.99;100.00;98856.25;5052850;28;20353;-76
2023/01/05 06:12:39;;;;;;;7.90;2.35;;;;;;;7.98;100.00;98854.59;5054892;28;20483;-76
2023/01/05 06:15:05;;;;;;;5.20;2.00;;;;;;;7.90;100.00;98841.16;5054953;28;20031;-76
2023/01/05 06:17:30;;;;;;;4.45;2.42;;;;;;;7.91;100.00;98851.44;5055008;28;20017;-76
2023/01/05 06:19:56;;;;;;;6.15;2.17;;;;;;;7.96;100.00;98846.91;5054824;28;20467;-76
2023/01/05 06:22:21;;;;;;;5.38;2.17;;;;;;;7.90;100.00;98854.97;5055079;28;20456;-76
2023/01/05 06:24:46;;;;;;;7.28;2.38;;;;;;;7.89;100.00;98855.88;5054795;28;20055;-76
2023/01/05 06:27:12;;;;;;;6.63;2.25;;;;;;;7.94;100.00;98868.63;5054920;28;20013;-76
2023/01/05 06:29:37;;;;;;;3.35;1.95;;;;;;;7.91;100.00;98868.75;5054705;28;20444;-76
2023/01/05 06:32:02;;;;;;;3.28;2.17;;;;;;;7.85;100.00;98866.47;5054765;28;20025;-76
2023/01/05 06:34:28;;;;;;;6.75;2.40;;;;;;;7.91;100.00;98873.94;5054307;28;20075;-76
2023/01/05 06:36:55;;;;;;;4.60;2.10;;;;;;;7.89;100.00;98868.84;5054805;28;20017;-76
2023/01/05 06:39:20;;;;;;;5.63;2.17;;;;;;;7.89;100.00;98868.00;5054739;28;20032;-76
2023/01/05 06:41:45;;;;;;;10.38;2.78;;;;;;;7.89;100.00;98870.59;5054859;28;20025;-76
2023/01/05 06:44:11;;;;;;;5.97;2.47;;;;;;;7.77;100.00;98855.63;5054975;28;20029;-76
2023/01/05 06:46:36;;;;;;;7.35;2.80;;;;;;;7.82;100.00;98861.44;5045751;28;20116;-76
2023/01/05 06:49:01;;;;;;;5.00;2.45;;;;;;;7.83;100.00;98868.28;5037037;28;20061;-76
2023/01/05 06:51:27;;;;;;;6.13;2.25;;;;;;;7.87;100.00;98877.59;5044064;28;20116;-76
2023/01/05 06:53:52;;;;;;;5.05;2.10;;;;;;;7.85;100.00;98869.06;5054362;28;20025;-76
2023/01/05 06:56:17;;;;;;;5.07;2.60;;;;;;;7.87;100.00;98877.59;5054404;28;20028;-76
2023/01/05 06:58:43;;;;;;;5.65;2.40;;;;;;;7.82;100.00;98867.44;5054159;28;20522;-76
2023/01/05 07:01:08;;;;;;;5.75;2.35;;;;;;;7.84;100.00;98872.59;5054052;28;20107;-76
2023/01/05 07:03:33;;;;;;;8.85;2.47;;;;;;;7.90;100.00;98880.06;5054006;28;20074;-76
2023/01/05 07:05:59;;;;;;;5.78;2.40;;;;;;;7.84;100.00;98864.81;5054252;28;20115;-76
2023/01/05 07:08:24;;;;;;;7.28;2.70;;;;;;;7.89;100.00;98886.16;5045432;28;20025;-76
2023/01/05 07:10:49;;;;;;;6.05;2.83;;;;;;;7.89;100.00;98875.78;5033822;28;20067;-76
2023/01/05 07:13:14;;;;;;;6.97;2.83;;;;;;;7.91;100.00;98884.31;5034065;28;20025;-76
2023/01/05 07:15:40;;;;;;;6.35;2.70;;;;;;;7.94;100.00;98881.59;5033797;28;20025;-77
2023/01/05 07:18:06;;;;;;;5.65;2.50;;;;;;;7.87;100.00;98857.69;5034011;28;20018;-76
2023/01/05 07:20:31;;;;;;;6.70;2.50;;;;;;;7.95;100.00;98875.47;5033642;28;20048;-76
2023/01/05 07:22:56;;;;;;;6.95;2.72;;;;;;;7.92;100.00;98880.81;5034245;28;20044;-76
2023/01/05 07:25:22;;;;;;;8.05;2.78;;;;;;;8.00;100.00;98891.66;5034255;28;20029;-76
2023/01/05 07:27:51;;;;;;;8.68;2.95;;;;;;;8.02;100.00;98883.81;5033736;28;20017;-76
2023/01/05 07:30:17;;;;;;;5.55;2.40;;;;;;;7.93;100.00;98874.72;5033710;28;20025;-76
2023/01/05 07:32:42;;;;;;;8.45;2.55;;;;;;;8.03;100.00;98888.09;5042175;28;20421;-77
2023/01/05 07:35:08;;;;;;;7.00;2.67;;;;;;;8.07;100.00;98897.41;5047672;28;20022;-76
2023/01/05 07:37:33;;;;;;;7.50;2.50;;;;;;;8.04;100.00;98885.41;5042059;28;20021;-76
2023/01/05 07:39:58;;;;;;;9.80;2.95;;;;;;;8.05;100.00;98881.06;5043740;28;20037;-76
2023/01/05 07:42:24;;;;;;;5.63;2.80;;;;;;;8.14;100.00;98891.00;5043421;28;20014;-76
2023/01/05 07:44:51;;;;;;;8.18;3.00;;;;;;;8.15;100.00;98898.69;5041814;28;20044;-76
2023/01/05 07:47:16;;;;;;;6.70;2.90;;;;;;;8.14;100.00;98898.78;5043880;28;20017;-76
2023/01/05 07:49:42;;;;;;;8.23;2.63;;;;;;;8.17;100.00;98901.22;5043073;28;20317;-76
2023/01/05 07:52:07;;;;;;;8.00;3.17;;;;;;;8.17;100.00;98896.03;5042457;28;20013;-76
2023/01/05 07:54:33;;;;;;;8.13;3.00;;;;;;;8.19;100.00;98899.41;5043825;28;20013;-76
2023/01/05 07:56:58;;;;;;;7.15;2.72;;;;;;;8.16;100.00;98890.00;5042473;28;20020;-76
2023/01/05 07:59:23;;;;;;;7.95;3.08;;;;;;;8.16;100.00;98883.97;5042788;28;20027;-76
2023/01/05 08:01:48;;;;;;;5.82;2.65;;;;;;;8.25;100.00;98907.69;5049064;28;20044;-77
2023/01/05 08:04:14;;;;;;;9.00;3.53;;;;;;;8.22;100.00;98900.09;5053361;28;20024;-76
2023/01/05 08:06:39;;;;;;;8.18;3.22;;;;;;;8.30;100.00;98917.00;5052914;28;20021;-76
2023/01/05 08:10:27;;;;;;;7.47;3.03;;;;;;;8.36;100.00;98899.41;5052911;28;20017;-76
2023/01/05 08:11:50;;;;;;;5.40;3.25;;;;;;;8.38;100.00;98904.53;5052522;28;20041;-76
2023/01/05 08:14:15;;;;;;;7.38;2.72;;;;;;;8.37;100.00;98901.09;5052895;28;20017;-76
2023/01/05 08:16:41;;;;;;;6.78;2.72;;;;;;;8.35;100.00;98902.91;5052366;28;20396;-76
2023/01/05 08:19:08;;;;;;;7.72;3.90;;;;;;;8.44;100.00;98910.28;5052792;28;20025;-76
2023/01/05 08:21:33;;;;;;;6.72;3.05;;;;;;;8.45;100.00;98905.91;5052795;28;20260;-76
2023/01/05 08:23:59;;;;;;;11.00;3.50;;;;;;;8.45;100.00;98896.38;5052764;28;20025;-76
2023/01/05 08:26:24;;;;;;;6.70;3.05;;;;;;;8.56;100.00;98923.56;5052796;28;20368;-76
2023/01/05 08:28:50;;;;;;;9.00;3.63;;;;;;;8.53;100.00;98900.34;5052441;28;20024;-76
2023/01/05 08:31:22;;;;;;;5.30;3.15;;;;;;;8.72;100.00;98911.47;5052429;28;20040;-76
2023/01/05 08:33:47;;;;;;;8.15;3.03;;;;;;;8.83;100.00;98913.53;5048873;28;20024;-76
2023/01/05 08:36:19;;;;;;;8.90;3.50;;;;;;;8.86;100.00;98913.38;5043135;28;20032;-76
2023/01/05 08:38:49;;;;;;;8.15;3.42;;;;;;;8.79;100.00;98912.84;5039357;28;20024;-76
2023/01/05 08:41:26;;;;;;;6.87;3.10;;;;;;;8.73;100.00;98915.78;5032521;28;20505;-77
2023/01/05 08:43:54;;;;;;;6.65;2.70;;;;;;;8.75;100.00;98926.91;5037932;28;20474;-76
2023/01/05 08:46:21;;;;;;;10.88;3.97;;;;;;;8.70;100.00;98921.09;5041695;28;20479;-76
2023/01/05 08:48:48;;;;;;;9.85;2.72;;;;;;;8.63;100.00;98919.72;5032297;28;20097;-77
2023/01/05 08:51:14;;;;;;;6.35;2.97;;;;;;;8.64;100.00;98924.88;5032383;28;20022;-77
2023/01/05 08:53:39;;;;;;;10.70;3.35;;;;;;;8.67;100.00;98934.22;5030876;28;20036;-76
2023/01/05 08:56:05;;;;;;;11.07;3.95;;;;;;;8.68;100.00;98935.91;5039928;28;20013;-77
2023/01/05 08:58:30;;;;;;;6.25;3.00;;;;;;;8.66;100.00;98938.59;5041373;28;20024;-77
2023/01/05 09:00:55;;;;;;;8.38;3.78;;;;;;;8.59;100.00;98929.41;5041371;28;20017;-76
2023/01/05 09:03:21;;;;;;;7.95;3.38;;;;;;;8.63;100.00;98930.09;5042556;28;20101;-76
2023/01/05 09:05:46;;;;;;;6.80;3.28;;;;;;;8.64;100.00;98937.84;5040460;28;20024;-76
2023/01/05 09:08:12;;;;;;;7.47;3.65;;;;;;;8.62;100.00;98933.63;5042167;28;20062;-76
2023/01/05 09:10:37;;;;;;;7.22;2.95;;;;;;;8.59;100.00;98937.22;5042304;28;20037;-77
2023/01/05 09:13:02;;;;;;;7.28;3.05;;;;;;;8.48;100.00;98919.59;5041080;28;20017;-76
2023/01/05 09:15:27;;;;;;;7.70;3.00;;;;;;;8.56;100.00;98936.53;5042320;28;20452;-76
2023/01/05 09:17:53;;;;;;;10.07;3.28;;;;;;;8.53;100.00;98955.69;5037094;28;20029;-77
2023/01/05 09:20:18;;;;;;;9.77;3.85;;;;;;;8.52;100.00;98953.19;5032090;28;20017;-77
2023/01/05 09:22:43;;;;;;;12.70;4.60;;;;;;;8.61;100.00;98960.50;5031887;28;20060;-76
2023/01/05 09:25:09;;;;;;;13.77;5.55;;;;;;;8.62;100.00;98963.03;5031917;28;20025;-76
2023/01/05 09:27:35;;;;;;;9.30;3.58;;;;;;;8.66;100.00;98959.34;5031874;28;20030;-76
2023/01/05 09:30:01;;;;;;;7.70;3.60;;;;;;;8.66;100.00;98953.31;5031825;28;20689;-77
2023/01/05 09:32:26;;;;;;;9.98;4.53;;;;;;;8.70;100.00;98967.84;5031991;28;20093;-76
2023/01/05 09:34:52;;;;;;;9.35;4.82;;;;;;;8.70;100.00;98979.06;5031718;28;20025;-77
2023/01/05 09:37:17;;;;;;;13.13;4.13;;;;;;;8.70;100.00;98968.66;5031953;28;20067;-76
2023/01/05 09:39:43;;;;;;;9.23;4.43;;;;;;;8.75;100.00;98977.06;5031556;28;20457;-76
2023/01/05 09:42:14;;;;;;;10.05;4.28;;;;;;;8.80;100.00;98976.00;5031821;28;20576;-78
2023/01/05 09:44:45;;;;;;;8.20;3.83;;;;;;;8.82;100.00;98968.97;5032245;28;20025;-78
2023/01/05 09:47:17;;;;;;;7.97;3.92;;;;;;;8.86;100.00;98989.53;5035879;28;20018;-78
2023/01/05 09:49:45;;;;;;;8.90;3.85;;;;;;;8.70;100.00;98958.28;5035519;28;20025;-78
2023/01/05 09:52:12;;;;;;;8.18;3.80;;;;;;;8.84;100.00;98973.16;5035750;28;20017;-78
2023/01/05 09:54:38;;;;;;;9.48;3.97;;;;;;;8.85;100.00;98966.22;5035527;28;20026;-77
2023/01/05 09:57:06;;;;;;;11.70;5.15;;;;;;;8.90;100.00;98969.44;5035607;28;20032;-78
2023/01/05 09:59:42;;;;;;;10.40;5.13;;;;;;;8.92;100.00;98981.41;5035650;28;20087;-78
2023/01/05 10:02:33;;;;;;;9.40;4.18;;;;;;;8.87;100.00;98972.19;5035584;28;20021;-78
2023/01/05 10:05:00;;;;;;;10.73;4.38;;;;;;;8.86;100.00;98986.94;5034973;28;20045;-78
2023/01/05 10:07:25;;;;;;;6.65;3.70;;;;;;;8.84;100.00;98982.72;5035411;28;20412;-77
2023/01/05 10:09:54;;;;;;;10.05;4.13;;;;;;;8.75;100.00;98969.28;5035196;28;20088;-77
2023/01/05 10:15:19;;;;;;;5.55;3.35;;;;;;;8.49;100.00;98995.69;5035313;28;20037;-77
2023/01/05 10:17:45;;;;;;;5.78;3.22;;;;;;;8.26;100.00;98986.41;5035150;28;20021;-76
2023/01/05 10:20:11;;;;;;;6.55;2.63;;;;;;;8.19;100.00;99010.94;5035601;28;20052;-77
2023/01/05 10:22:54;;;;;;;4.88;2.15;;;;;;;8.02;100.00;99003.94;5035562;28;20468;-77
2023/01/05 10:25:22;;;;;;;7.18;2.70;;;;;;;7.96;100.00;99001.63;5035150;28;20029;-76
2023/01/05 10:27:54;;;;;;;9.05;2.83;;;;;;;7.90;100.00;99009.69;5034732;28;20026;-77
2023/01/05 10:30:22;;;;;;;6.80;2.45;;;;;;;7.71;100.00;99005.34;5035361;28;20361;-76
2023/01/05 10:33:00;;;;;;;4.35;2.15;;;;;;;7.69;100.00;99012.34;5034835;28;20017;-85
2023/01/05 10:36:09;;;;;;;4.75;2.35;;;;;;;7.67;100.00;99000.38;5034721;28;20526;-76
2023/01/05 10:38:52;;;;;;;4.75;2.00;;;;;;;7.66;100.00;99017.66;5012798;28;20144;-77
2023/01/05 10:41:53;;;;;;;5.22;2.80;;;;;;;7.68;100.00;99012.44;5012397;28;20072;-76
2023/01/05 10:44:28;;;;;;;5.57;2.63;;;;;;;7.62;100.00;99003.16;4954303;29;20195;-76
2023/01/05 10:46:53;;;;;;;7.97;3.15;;;;;;;7.57;100.00;98992.16;4953729;28;20086;-76
2023/01/05 10:49:23;;;;;;;4.50;2.35;;;;;;;7.60;100.00;99012.75;4953946;29;20039;-76
2023/01/05 10:51:50;;;;;;;3.35;1.90;;;;;;;7.48;100.00;98985.63;4953878;29;20170;-76
2023/01/05 10:54:28;;;;;;;5.78;2.85;;;;;;;7.46;100.00;98989.22;4954071;29;20034;-76
2023/01/05 10:56:54;;;;;;;5.80;3.30;;;;;;;7.50;100.00;98994.19;4953180;28;20031;-76
2023/01/05 10:59:19;;;;;;;2.90;2.08;;;;;;;7.40;100.00;98992.91;4953863;29;20035;-76
2023/01/05 11:01:48;;;;;;;5.72;3.30;;;;;;;7.43;100.00;98985.00;4953555;29;20600;-76
2023/01/05 11:04:17;;;;;;;5.60;3.55;;;;;;;7.38;100.00;98986.97;4953842;29;20086;-76
2023/01/05 11:06:43;;;;;;;4.68;2.70;;;;;;;7.32;100.00;98983.78;4953445;28;20039;-76
2023/01/05 11:09:16;;;;;;;5.22;3.13;;;;;;;7.32;100.00;98983.78;4953291;28;20121;-76
2023/01/05 11:11:42;;;;;;;4.13;2.50;;;;;;;7.40;100.00;98994.66;4953732;28;20085;-76
2023/01/05 11:14:15;;;;;;;4.18;2.80;;;;;;;7.36;100.00;98993.13;4963096;28;20038;-76
2023/01/05 11:16:48;;;;;;;8.32;2.63;;;;;;;7.33;100.00;99008.78;4992339;28;20450;-76
2023/01/05 11:19:17;;;;;;;5.45;2.83;;;;;;;7.37;100.00;98994.78;4992329;28;20031;-76
2023/01/05 11:21:44;;;;;;;6.05;2.92;;;;;;;7.36;100.00;99004.31;5019861;28;20037;-76
2023/01/05 11:24:22;;;;;;;6.47;3.42;;;;;;;7.37;100.00;99003.41;5033952;28;20148;-76
2023/01/05 11:27:09;;;;;;;2.60;2.20;;;;;;;7.34;100.00;98995.78;5033897;28;20371;-76
2023/01/05 11:29:34;;;;;;;2.92;2.17;;;;;;;7.22;100.00;98997.16;5011663;28;20038;-76
2023/01/05 11:32:01;;;;;;;3.30;2.20;;;;;;;7.22;100.00;98985.94;5011353;28;20044;-76
2023/01/05 11:34:44;;;;;;;4.53;2.40;;;;;;;7.34;100.00;99000.13;5011402;28;20324;-76
2023/01/05 11:37:24;;;;;;;4.90;2.97;;;;;;;7.51;100.00;98995.03;5011575;28;20034;-76
2023/01/05 11:39:53;;;;;;;4.85;2.78;;;;;;;7.53;100.00;98998.38;5011075;28;20129;-76
2023/01/05 11:42:26;;;;;;;6.68;3.03;;;;;;;7.42;100.00;98993.69;5011642;28;20045;-76
2023/01/05 11:45:06;;;;;;;7.60;3.45;;;;;;;7.46;100.00;99008.19;5011403;28;20056;-76
2023/01/05 11:47:43;;;;;;;9.45;3.97;;;;;;;7.41;100.00;98994.59;5011368;28;20111;-76
2023/01/05 11:50:08;;;;;;;8.63;3.88;;;;;;;7.47;100.00;99004.69;5010957;28;20025;-76
2023/01/05 11:52:38;;;;;;;6.97;3.80;;;;;;;7.46;100.00;98990.06;5011539;28;20033;-76
2023/01/05 11:55:38;;;;;;;6.97;3.80;;;;;;;7.56;100.00;99018.16;5010970;28;20030;-76
2023/01/05 11:58:16;;;;;;;8.15;3.95;;;;;;;7.61;100.00;99014.44;4952642;29;20053;-76
2023/01/05 12:01:00;;;;;;;5.70;3.47;;;;;;;7.78;100.00;99012.84;4952665;29;20027;-76
2023/01/05 12:03:43;;;;;;;5.15;3.30;;;;;;;8.08;100.00;99014.03;4952777;29;20537;-76
2023/01/05 12:06:23;;;;;;;5.78;3.47;;;;;;;8.26;100.00;99012.34;4947154;28;20037;-76
2023/01/05 12:09:01;;;;;;;6.30;3.22;;;;;;;8.43;100.00;99017.59;4990490;28;20554;-76
2023/01/05 12:11:39;;;;;;;3.72;2.50;;;;;;;8.65;100.00;99016.56;4991353;28;20037;-76
2023/01/05 12:14:20;;;;;;;7.88;3.50;;;;;;;8.78;100.00;99017.63;4990900;28;20141;-76